sensor_id;sensor_type;location;lat;lon;timestamp;temperature;humidity
17701;DHT22;8969;48.576;12.580;2023-10-31T00:02:06;12.10;99.90
17701;DHT22;8969;48.576;12.580;2023-10-31T00:04:37;12.00;99.90
17701;DHT22;8969;48.576;12.580;2023-10-31T00:07:05;12.00;99.90
17701;DHT22;8969;48.576;12.580;2023-10-31T00:09:33;12.10;99.90
17701;DHT22;8969;48.576;12.580;2023-10-31T00:12:02;12.00;99.90
17701;DHT22;8969;48.576;12.580;2023-10-31T00:14:30;12.10;99.90
17701;DHT22;8969;48.576;12.580;2023-10-31T00:16:59;12.00;99.90
17701;DHT22;8969;48.576;12.580;2023-10-31T00:19:27;12.10;99.90
17701;DHT22;8969;48.576;12.580;2023-10-31T00:21:57;12.10;99.90
17701;DHT22;8969;48.576;12.580;2023-10-31T00:24:26;12.10;99.90
17701;DHT22;8969;48.576;12.580;2023-10-31T00:26:54;12.10;99.90
17701;DHT22;8969;48.576;12.580;2023-10-31T00:29:22;12.10;99.90
17701;DHT22;8969;48.576;12.580;2023-10-31T00:31:51;12.10;99.90
17701;DHT22;8969;48.576;12.580;2023-10-31T00:34:19;12.10;99.90
17701;DHT22;8969;48.576;12.580;2023-10-31T00:36:48;12.10;99.90
17701;DHT22;8969;48.576;12.580;2023-10-31T00:39:17;12.10;99.90
17701;DHT22;8969;48.576;12.580;2023-10-31T00:41:45;12.00;99.90
17701;DHT22;8969;48.576;12.580;2023-10-31T00:44:14;12.10;99.90
17701;DHT22;8969;48.576;12.580;2023-10-31T00:46:42;12.10;99.90
17701;DHT22;8969;48.576;12.580;2023-10-31T00:49:10;12.00;99.90
17701;DHT22;8969;48.576;12.580;2023-10-31T00:51:39;12.00;99.90
17701;DHT22;8969;48.576;12.580;2023-10-31T00:54:07;12.00;99.90
17701;DHT22;8969;48.576;12.580;2023-10-31T00:56:37;12.00;99.90
17701;DHT22;8969;48.576;12.580;2023-10-31T00:59:05;12.00;99.90
17701;DHT22;8969;48.576;12.580;2023-10-31T01:01:33;12.00;99.90
17701;DHT22;8969;48.576;12.580;2023-10-31T01:04:06;11.90;99.90
17701;DHT22;8969;48.576;12.580;2023-10-31T01:06:40;11.90;99.90
17701;DHT22;8969;48.576;12.580;2023-10-31T01:09:09;11.90;99.90
17701;DHT22;8969;48.576;12.580;2023-10-31T01:11:39;11.90;99.90
17701;DHT22;8969;48.576;12.580;2023-10-31T01:14:07;11.90;99.90
17701;DHT22;8969;48.576;12.580;2023-10-31T01:16:36;11.80;99.90
17701;DHT22;8969;48.576;12.580;2023-10-31T01:19:04;11.80;99.90
17701;DHT22;8969;48.576;12.580;2023-10-31T01:21:33;11.80;99.90
17701;DHT22;8969;48.576;12.580;2023-10-31T01:24:01;11.70;99.90
17701;DHT22;8969;48.576;12.580;2023-10-31T01:26:29;11.70;99.90
17701;DHT22;8969;48.576;12.580;2023-10-31T01:29:02;11.70;99.90
17701;DHT22;8969;48.576;12.580;2023-10-31T01:31:31;11.70;99.90
17701;DHT22;8969;48.576;12.580;2023-10-31T01:34:05;11.70;99.90
17701;DHT22;8969;48.576;12.580;2023-10-31T01:36:34;11.60;99.90
17701;DHT22;8969;48.576;12.580;2023-10-31T01:39:02;11.60;99.90
17701;DHT22;8969;48.576;12.580;2023-10-31T01:41:31;11.60;99.90
17701;DHT22;8969;48.576;12.580;2023-10-31T01:44:01;11.60;99.90
17701;DHT22;8969;48.576;12.580;2023-10-31T01:46:30;11.60;99.90
17701;DHT22;8969;48.576;12.580;2023-10-31T01:48:58;11.60;99.90
17701;DHT22;8969;48.576;12.580;2023-10-31T01:51:28;11.60;99.90
17701;DHT22;8969;48.576;12.580;2023-10-31T01:53:56;11.60;99.90
17701;DHT22;8969;48.576;12.580;2023-10-31T01:56:25;11.50;99.90
17701;DHT22;8969;48.576;12.580;2023-10-31T01:58:54;11.50;99.90
17701;DHT22;8969;48.576;12.580;2023-10-31T02:01:24;11.50;99.90
17701;DHT22;8969;48.576;12.580;2023-10-31T02:03:53;11.50;99.90
17701;DHT22;8969;48.576;12.580;2023-10-31T02:06:21;11.50;99.90
17701;DHT22;8969;48.576;12.580;2023-10-31T02:08:49;11.40;99.90
17701;DHT22;8969;48.576;12.580;2023-10-31T02:11:17;11.40;99.90
17701;DHT22;8969;48.576;12.580;2023-10-31T02:13:45;11.40;99.90
17701;DHT22;8969;48.576;12.580;2023-10-31T02:16:14;11.40;99.90
17701;DHT22;8969;48.576;12.580;2023-10-31T02:18:44;11.40;99.90
17701;DHT22;8969;48.576;12.580;2023-10-31T02:21:13;11.40;99.90
17701;DHT22;8969;48.576;12.580;2023-10-31T02:23:42;11.40;99.90
17701;DHT22;8969;48.576;12.580;2023-10-31T02:26:11;11.40;99.90
17701;DHT22;8969;48.576;12.580;2023-10-31T02:28:40;11.40;99.90
17701;DHT22;8969;48.576;12.580;2023-10-31T02:31:09;11.40;99.90
17701;DHT22;8969;48.576;12.580;2023-10-31T02:33:38;11.40;99.90
17701;DHT22;8969;48.576;12.580;2023-10-31T02:36:08;11.30;99.90
17701;DHT22;8969;48.576;12.580;2023-10-31T02:38:36;11.30;99.90
17701;DHT22;8969;48.576;12.580;2023-10-31T02:41:06;11.30;99.90
17701;DHT22;8969;48.576;12.580;2023-10-31T02:43:37;11.20;99.90
17701;DHT22;8969;48.576;12.580;2023-10-31T02:46:05;11.20;99.90
17701;DHT22;8969;48.576;12.580;2023-10-31T02:48:34;11.20;99.90
17701;DHT22;8969;48.576;12.580;2023-10-31T02:51:06;11.20;99.90
17701;DHT22;8969;48.576;12.580;2023-10-31T02:53:35;11.20;99.90
17701;DHT22;8969;48.576;12.580;2023-10-31T02:56:05;11.20;99.90
17701;DHT22;8969;48.576;12.580;2023-10-31T02:58:34;11.20;99.90
17701;DHT22;8969;48.576;12.580;2023-10-31T03:01:02;11.20;99.90
17701;DHT22;8969;48.576;12.580;2023-10-31T03:03:31;11.10;99.90
17701;DHT22;8969;48.576;12.580;2023-10-31T03:05:59;11.10;99.90
17701;DHT22;8969;48.576;12.580;2023-10-31T03:08:29;11.10;99.90
17701;DHT22;8969;48.576;12.580;2023-10-31T03:10:57;11.10;99.90
17701;DHT22;8969;48.576;12.580;2023-10-31T03:13:28;11.10;99.90
17701;DHT22;8969;48.576;12.580;2023-10-31T03:15:57;11.10;99.90
17701;DHT22;8969;48.576;12.580;2023-10-31T03:18:25;11.10;99.90
17701;DHT22;8969;48.576;12.580;2023-10-31T03:20:53;11.10;99.90
17701;DHT22;8969;48.576;12.580;2023-10-31T03:23:21;11.00;99.90
17701;DHT22;8969;48.576;12.580;2023-10-31T03:25:49;11.00;99.90
17701;DHT22;8969;48.576;12.580;2023-10-31T03:28:19;11.00;99.90
17701;DHT22;8969;48.576;12.580;2023-10-31T03:30:51;11.00;99.90
17701;DHT22;8969;48.576;12.580;2023-10-31T03:33:20;11.00;99.90
17701;DHT22;8969;48.576;12.580;2023-10-31T03:35:48;10.90;99.90
17701;DHT22;8969;48.576;12.580;2023-10-31T03:38:17;10.90;99.90
17701;DHT22;8969;48.576;12.580;2023-10-31T03:40:45;11.00;99.90
17701;DHT22;8969;48.576;12.580;2023-10-31T03:43:12;10.90;99.90
17701;DHT22;8969;48.576;12.580;2023-10-31T03:45:40;10.90;99.90
17701;DHT22;8969;48.576;12.580;2023-10-31T03:48:10;10.90;99.90
17701;DHT22;8969;48.576;12.580;2023-10-31T03:50:38;10.90;99.90
17701;DHT22;8969;48.576;12.580;2023-10-31T03:53:06;10.80;99.90
17701;DHT22;8969;48.576;12.580;2023-10-31T03:55:35;10.80;99.90
17701;DHT22;8969;48.576;12.580;2023-10-31T03:58:04;10.80;99.90
17701;DHT22;8969;48.576;12.580;2023-10-31T04:00:33;10.80;99.90
17701;DHT22;8969;48.576;12.580;2023-10-31T04:03:01;10.80;99.90
17701;DHT22;8969;48.576;12.580;2023-10-31T04:05:31;10.80;99.90
17701;DHT22;8969;48.576;12.580;2023-10-31T04:08:01;10.80;99.90
17701;DHT22;8969;48.576;12.580;2023-10-31T04:10:29;10.70;99.90
17701;DHT22;8969;48.576;12.580;2023-10-31T04:12:58;10.80;99.90
17701;DHT22;8969;48.576;12.580;2023-10-31T04:15:28;10.80;99.90
17701;DHT22;8969;48.576;12.580;2023-10-31T04:17:56;10.80;99.90
17701;DHT22;8969;48.576;12.580;2023-10-31T04:20:24;10.80;99.90
17701;DHT22;8969;48.576;12.580;2023-10-31T04:22:53;10.80;99.90
17701;DHT22;8969;48.576;12.580;2023-10-31T04:25:22;10.80;99.90
17701;DHT22;8969;48.576;12.580;2023-10-31T04:27:51;10.80;99.90
17701;DHT22;8969;48.576;12.580;2023-10-31T04:30:19;10.70;99.90
17701;DHT22;8969;48.576;12.580;2023-10-31T04:32:48;10.80;99.90
17701;DHT22;8969;48.576;12.580;2023-10-31T04:35:16;10.80;99.90
17701;DHT22;8969;48.576;12.580;2023-10-31T04:37:44;10.80;99.90
17701;DHT22;8969;48.576;12.580;2023-10-31T04:40:14;10.80;99.90
17701;DHT22;8969;48.576;12.580;2023-10-31T04:42:46;10.80;99.90
17701;DHT22;8969;48.576;12.580;2023-10-31T04:45:15;10.70;99.90
17701;DHT22;8969;48.576;12.580;2023-10-31T04:47:44;10.70;99.90
17701;DHT22;8969;48.576;12.580;2023-10-31T04:50:12;10.70;99.90
17701;DHT22;8969;48.576;12.580;2023-10-31T04:52:41;10.70;99.90
17701;DHT22;8969;48.576;12.580;2023-10-31T04:55:10;10.80;99.90
17701;DHT22;8969;48.576;12.580;2023-10-31T04:57:39;10.80;99.90
17701;DHT22;8969;48.576;12.580;2023-10-31T05:00:08;10.70;99.90
17701;DHT22;8969;48.576;12.580;2023-10-31T05:02:37;10.80;99.90
17701;DHT22;8969;48.576;12.580;2023-10-31T05:05:05;10.70;99.90
17701;DHT22;8969;48.576;12.580;2023-10-31T05:07:34;10.70;99.90
17701;DHT22;8969;48.576;12.580;2023-10-31T05:10:01;10.70;99.90
17701;DHT22;8969;48.576;12.580;2023-10-31T05:12:30;10.70;99.90
17701;DHT22;8969;48.576;12.580;2023-10-31T05:15:29;10.70;99.90
17701;DHT22;8969;48.576;12.580;2023-10-31T05:17:58;10.70;99.90
17701;DHT22;8969;48.576;12.580;2023-10-31T05:20:26;10.70;99.90
17701;DHT22;8969;48.576;12.580;2023-10-31T05:22:54;10.70;99.90
17701;DHT22;8969;48.576;12.580;2023-10-31T05:25:22;10.60;99.90
17701;DHT22;8969;48.576;12.580;2023-10-31T05:27:51;10.60;99.90
17701;DHT22;8969;48.576;12.580;2023-10-31T05:30:19;10.70;99.90
17701;DHT22;8969;48.576;12.580;2023-10-31T05:32:49;10.60;99.90
17701;DHT22;8969;48.576;12.580;2023-10-31T05:35:18;10.60;99.90
17701;DHT22;8969;48.576;12.580;2023-10-31T05:37:46;10.70;99.90
17701;DHT22;8969;48.576;12.580;2023-10-31T05:40:15;10.60;99.90
17701;DHT22;8969;48.576;12.580;2023-10-31T05:42:44;10.60;99.90
17701;DHT22;8969;48.576;12.580;2023-10-31T05:45:12;10.60;99.90
17701;DHT22;8969;48.576;12.580;2023-10-31T05:47:40;10.60;99.90
17701;DHT22;8969;48.576;12.580;2023-10-31T05:50:10;10.60;99.90
17701;DHT22;8969;48.576;12.580;2023-10-31T05:52:38;10.60;99.90
17701;DHT22;8969;48.576;12.580;2023-10-31T05:55:07;10.50;99.90
17701;DHT22;8969;48.576;12.580;2023-10-31T05:57:35;10.50;99.90
17701;DHT22;8969;48.576;12.580;2023-10-31T06:00:04;10.50;99.90
17701;DHT22;8969;48.576;12.580;2023-10-31T06:03:04;10.50;99.90
17701;DHT22;8969;48.576;12.580;2023-10-31T06:05:34;10.50;99.90
17701;DHT22;8969;48.576;12.580;2023-10-31T06:08:05;10.50;99.90
17701;DHT22;8969;48.576;12.580;2023-10-31T06:10:33;10.50;99.90
17701;DHT22;8969;48.576;12.580;2023-10-31T06:13:01;10.50;99.90
17701;DHT22;8969;48.576;12.580;2023-10-31T06:15:30;10.50;99.90
17701;DHT22;8969;48.576;12.580;2023-10-31T06:17:58;10.50;99.90
17701;DHT22;8969;48.576;12.580;2023-10-31T06:20:29;10.40;99.90
17701;DHT22;8969;48.576;12.580;2023-10-31T06:23:00;10.50;99.90
17701;DHT22;8969;48.576;12.580;2023-10-31T06:25:31;10.50;99.90
17701;DHT22;8969;48.576;12.580;2023-10-31T06:27:59;10.50;99.90
17701;DHT22;8969;48.576;12.580;2023-10-31T06:30:28;10.50;99.90
17701;DHT22;8969;48.576;12.580;2023-10-31T06:32:57;10.50;99.90
17701;DHT22;8969;48.576;12.580;2023-10-31T06:35:27;10.50;99.90
17701;DHT22;8969;48.576;12.580;2023-10-31T06:37:56;10.50;99.90
17701;DHT22;8969;48.576;12.580;2023-10-31T06:40:27;10.50;99.90
17701;DHT22;8969;48.576;12.580;2023-10-31T06:42:55;10.50;99.90
17701;DHT22;8969;48.576;12.580;2023-10-31T06:45:23;10.50;99.90
17701;DHT22;8969;48.576;12.580;2023-10-31T06:47:52;10.60;99.90
17701;DHT22;8969;48.576;12.580;2023-10-31T06:50:20;10.50;99.90
17701;DHT22;8969;48.576;12.580;2023-10-31T06:52:50;10.50;99.90
17701;DHT22;8969;48.576;12.580;2023-10-31T06:55:18;10.50;99.90
17701;DHT22;8969;48.576;12.580;2023-10-31T06:57:49;10.50;99.90
17701;DHT22;8969;48.576;12.580;2023-10-31T07:00:17;10.50;99.90
17701;DHT22;8969;48.576;12.580;2023-10-31T07:02:46;10.50;99.90
17701;DHT22;8969;48.576;12.580;2023-10-31T07:05:18;10.50;99.90
17701;DHT22;8969;48.576;12.580;2023-10-31T07:07:47;10.50;99.90
17701;DHT22;8969;48.576;12.580;2023-10-31T07:10:16;10.50;99.90
17701;DHT22;8969;48.576;12.580;2023-10-31T07:12:44;10.60;99.90
17701;DHT22;8969;48.576;12.580;2023-10-31T07:15:14;10.60;99.90
17701;DHT22;8969;48.576;12.580;2023-10-31T07:17:43;10.60;99.90
17701;DHT22;8969;48.576;12.580;2023-10-31T07:20:11;10.60;99.90
17701;DHT22;8969;48.576;12.580;2023-10-31T07:22:41;10.60;99.90
17701;DHT22;8969;48.576;12.580;2023-10-31T07:25:10;10.60;99.90
17701;DHT22;8969;48.576;12.580;2023-10-31T07:27:39;10.60;99.90
17701;DHT22;8969;48.576;12.580;2023-10-31T07:30:07;10.60;99.90
17701;DHT22;8969;48.576;12.580;2023-10-31T07:32:37;10.60;99.90
17701;DHT22;8969;48.576;12.580;2023-10-31T07:35:06;10.60;99.90
17701;DHT22;8969;48.576;12.580;2023-10-31T07:37:35;10.60;99.90
17701;DHT22;8969;48.576;12.580;2023-10-31T07:40:04;10.60;99.90
17701;DHT22;8969;48.576;12.580;2023-10-31T07:42:32;10.60;99.90
17701;DHT22;8969;48.576;12.580;2023-10-31T07:45:00;10.60;99.90
17701;DHT22;8969;48.576;12.580;2023-10-31T07:47:28;10.70;99.90
17701;DHT22;8969;48.576;12.580;2023-10-31T07:50:01;10.70;99.90
17701;DHT22;8969;48.576;12.580;2023-10-31T07:52:30;10.60;99.90
17701;DHT22;8969;48.576;12.580;2023-10-31T07:54:59;10.60;99.90
17701;DHT22;8969;48.576;12.580;2023-10-31T07:57:28;10.60;99.90
17701;DHT22;8969;48.576;12.580;2023-10-31T07:59:56;10.60;99.90
17701;DHT22;8969;48.576;12.580;2023-10-31T08:02:24;10.60;99.90
17701;DHT22;8969;48.576;12.580;2023-10-31T08:04:52;10.60;99.90
17701;DHT22;8969;48.576;12.580;2023-10-31T08:07:22;10.60;99.90
17701;DHT22;8969;48.576;12.580;2023-10-31T08:09:51;10.60;99.90
17701;DHT22;8969;48.576;12.580;2023-10-31T08:12:19;10.60;99.90
17701;DHT22;8969;48.576;12.580;2023-10-31T08:14:48;10.60;99.90
17701;DHT22;8969;48.576;12.580;2023-10-31T08:17:16;10.60;99.90
17701;DHT22;8969;48.576;12.580;2023-10-31T08:19:44;10.60;99.90
17701;DHT22;8969;48.576;12.580;2023-10-31T08:22:14;10.60;99.90
17701;DHT22;8969;48.576;12.580;2023-10-31T08:24:44;10.60;99.90
17701;DHT22;8969;48.576;12.580;2023-10-31T08:27:13;10.60;99.90
17701;DHT22;8969;48.576;12.580;2023-10-31T08:29:41;10.60;99.90
17701;DHT22;8969;48.576;12.580;2023-10-31T08:32:10;10.50;99.90
17701;DHT22;8969;48.576;12.580;2023-10-31T08:34:38;10.50;99.90
17701;DHT22;8969;48.576;12.580;2023-10-31T08:37:06;10.50;99.90
17701;DHT22;8969;48.576;12.580;2023-10-31T08:39:34;10.50;99.90
17701;DHT22;8969;48.576;12.580;2023-10-31T08:42:05;10.50;99.90
17701;DHT22;8969;48.576;12.580;2023-10-31T08:44:36;10.50;99.90
17701;DHT22;8969;48.576;12.580;2023-10-31T08:47:05;10.40;99.90
17701;DHT22;8969;48.576;12.580;2023-10-31T08:49:34;10.50;99.90
17701;DHT22;8969;48.576;12.580;2023-10-31T08:52:02;10.50;99.90
17701;DHT22;8969;48.576;12.580;2023-10-31T08:54:31;10.50;99.90
17701;DHT22;8969;48.576;12.580;2023-10-31T08:56:59;10.60;99.90
17701;DHT22;8969;48.576;12.580;2023-10-31T08:59:29;10.60;99.90
17701;DHT22;8969;48.576;12.580;2023-10-31T09:01:57;10.70;99.90
17701;DHT22;8969;48.576;12.580;2023-10-31T09:04:27;10.70;99.90
17701;DHT22;8969;48.576;12.580;2023-10-31T09:06:56;10.70;99.90
17701;DHT22;8969;48.576;12.580;2023-10-31T09:09:24;10.70;99.90
17701;DHT22;8969;48.576;12.580;2023-10-31T09:11:52;10.70;99.90
17701;DHT22;8969;48.576;12.580;2023-10-31T09:14:21;10.70;99.90
17701;DHT22;8969;48.576;12.580;2023-10-31T09:16:50;10.60;99.90
17701;DHT22;8969;48.576;12.580;2023-10-31T09:19:19;10.60;99.90
17701;DHT22;8969;48.576;12.580;2023-10-31T09:21:47;10.70;99.90
17701;DHT22;8969;48.576;12.580;2023-10-31T09:24:15;10.70;99.90
17701;DHT22;8969;48.576;12.580;2023-10-31T09:26:44;10.80;99.90
17701;DHT22;8969;48.576;12.580;2023-10-31T09:29:12;10.80;99.90
17701;DHT22;8969;48.576;12.580;2023-10-31T09:31:56;10.80;99.90
17701;DHT22;8969;48.576;12.580;2023-10-31T09:34:28;10.90;99.90
17701;DHT22;8969;48.576;12.580;2023-10-31T09:36:57;11.00;99.90
17701;DHT22;8969;48.576;12.580;2023-10-31T09:39:28;11.00;99.90
17701;DHT22;8969;48.576;12.580;2023-10-31T09:41:56;11.00;99.90
17701;DHT22;8969;48.576;12.580;2023-10-31T09:44:24;11.10;99.90
17701;DHT22;8969;48.576;12.580;2023-10-31T09:46:53;11.10;99.90
17701;DHT22;8969;48.576;12.580;2023-10-31T09:49:23;11.20;99.90
17701;DHT22;8969;48.576;12.580;2023-10-31T09:51:52;11.20;99.90
17701;DHT22;8969;48.576;12.580;2023-10-31T09:54:20;11.10;99.90
17701;DHT22;8969;48.576;12.580;2023-10-31T09:56:48;11.10;99.90
17701;DHT22;8969;48.576;12.580;2023-10-31T09:59:17;11.10;99.90
17701;DHT22;8969;48.576;12.580;2023-10-31T10:01:47;11.10;99.90
17701;DHT22;8969;48.576;12.580;2023-10-31T10:04:15;11.10;99.90
17701;DHT22;8969;48.576;12.580;2023-10-31T10:06:58;11.10;99.90
17701;DHT22;8969;48.576;12.580;2023-10-31T10:09:27;11.10;99.90
17701;DHT22;8969;48.576;12.580;2023-10-31T10:11:56;11.10;99.90
17701;DHT22;8969;48.576;12.580;2023-10-31T10:14:25;11.10;99.90
17701;DHT22;8969;48.576;12.580;2023-10-31T10:16:53;11.20;99.90
17701;DHT22;8969;48.576;12.580;2023-10-31T10:19:22;11.10;99.90
17701;DHT22;8969;48.576;12.580;2023-10-31T10:21:53;11.10;99.90
17701;DHT22;8969;48.576;12.580;2023-10-31T10:24:22;11.00;99.90
17701;DHT22;8969;48.576;12.580;2023-10-31T10:26:51;11.00;99.90
17701;DHT22;8969;48.576;12.580;2023-10-31T10:29:20;11.10;99.90
17701;DHT22;8969;48.576;12.580;2023-10-31T10:31:48;11.00;99.90
17701;DHT22;8969;48.576;12.580;2023-10-31T10:34:17;10.90;99.90
17701;DHT22;8969;48.576;12.580;2023-10-31T10:36:48;10.90;99.90
17701;DHT22;8969;48.576;12.580;2023-10-31T10:39:21;11.00;99.90
17701;DHT22;8969;48.576;12.580;2023-10-31T10:41:53;11.00;99.90
17701;DHT22;8969;48.576;12.580;2023-10-31T10:44:30;11.00;99.90
17701;DHT22;8969;48.576;12.580;2023-10-31T10:47:04;11.00;99.90
17701;DHT22;8969;48.576;12.580;2023-10-31T10:49:34;11.00;99.90
17701;DHT22;8969;48.576;12.580;2023-10-31T10:52:14;11.10;99.90
17701;DHT22;8969;48.576;12.580;2023-10-31T10:54:52;11.00;99.90
17701;DHT22;8969;48.576;12.580;2023-10-31T10:57:31;11.00;99.90
17701;DHT22;8969;48.576;12.580;2023-10-31T11:00:03;11.00;99.90
17701;DHT22;8969;48.576;12.580;2023-10-31T11:02:33;11.00;99.90
17701;DHT22;8969;48.576;12.580;2023-10-31T11:05:05;11.00;99.90
17701;DHT22;8969;48.576;12.580;2023-10-31T11:07:34;11.10;99.90
17701;DHT22;8969;48.576;12.580;2023-10-31T11:10:05;11.10;99.90
17701;DHT22;8969;48.576;12.580;2023-10-31T11:12:36;11.10;99.90
17701;DHT22;8969;48.576;12.580;2023-10-31T11:15:07;11.20;99.90
17701;DHT22;8969;48.576;12.580;2023-10-31T11:17:39;11.20;99.90
17701;DHT22;8969;48.576;12.580;2023-10-31T11:20:10;11.20;99.90
17701;DHT22;8969;48.576;12.580;2023-10-31T11:22:39;11.20;99.90
17701;DHT22;8969;48.576;12.580;2023-10-31T11:25:12;11.20;99.90
17701;DHT22;8969;48.576;12.580;2023-10-31T11:27:52;11.30;99.90
17701;DHT22;8969;48.576;12.580;2023-10-31T11:30:22;11.30;99.90
17701;DHT22;8969;48.576;12.580;2023-10-31T11:32:52;11.40;99.90
17701;DHT22;8969;48.576;12.580;2023-10-31T11:35:21;11.50;99.90
17701;DHT22;8969;48.576;12.580;2023-10-31T11:38:01;11.40;99.90
17701;DHT22;8969;48.576;12.580;2023-10-31T11:40:36;11.40;99.90
17701;DHT22;8969;48.576;12.580;2023-10-31T11:43:06;11.60;99.90
17701;DHT22;8969;48.576;12.580;2023-10-31T11:45:36;11.60;99.90
17701;DHT22;8969;48.576;12.580;2023-10-31T11:48:05;11.60;99.90
17701;DHT22;8969;48.576;12.580;2023-10-31T11:50:34;11.70;99.90
17701;DHT22;8969;48.576;12.580;2023-10-31T11:53:05;11.70;99.90
17701;DHT22;8969;48.576;12.580;2023-10-31T11:55:42;11.70;99.90
17701;DHT22;8969;48.576;12.580;2023-10-31T11:58:18;11.70;99.90
17701;DHT22;8969;48.576;12.580;2023-10-31T12:00:47;11.60;99.90
17701;DHT22;8969;48.576;12.580;2023-10-31T12:03:17;11.50;99.90
17701;DHT22;8969;48.576;12.580;2023-10-31T12:05:53;11.50;99.90
17701;DHT22;8969;48.576;12.580;2023-10-31T12:08:27;11.50;99.90
17701;DHT22;8969;48.576;12.580;2023-10-31T12:11:10;11.50;99.90
17701;DHT22;8969;48.576;12.580;2023-10-31T12:13:41;11.50;99.90
17701;DHT22;8969;48.576;12.580;2023-10-31T12:16:11;11.50;99.90
17701;DHT22;8969;48.576;12.580;2023-10-31T12:18:39;11.50;99.90
17701;DHT22;8969;48.576;12.580;2023-10-31T12:21:08;11.60;99.90
17701;DHT22;8969;48.576;12.580;2023-10-31T12:23:38;11.70;99.90
17701;DHT22;8969;48.576;12.580;2023-10-31T12:26:06;11.60;99.90
17701;DHT22;8969;48.576;12.580;2023-10-31T12:28:35;11.70;99.90
17701;DHT22;8969;48.576;12.580;2023-10-31T12:31:06;11.70;99.90
17701;DHT22;8969;48.576;12.580;2023-10-31T12:33:34;11.60;99.90
17701;DHT22;8969;48.576;12.580;2023-10-31T12:36:04;11.70;99.90
17701;DHT22;8969;48.576;12.580;2023-10-31T12:38:32;11.70;99.90
17701;DHT22;8969;48.576;12.580;2023-10-31T12:41:03;11.80;99.90
17701;DHT22;8969;48.576;12.580;2023-10-31T12:43:31;11.80;99.90
17701;DHT22;8969;48.576;12.580;2023-10-31T12:46:23;11.80;99.90
17701;DHT22;8969;48.576;12.580;2023-10-31T12:48:52;11.90;99.90
17701;DHT22;8969;48.576;12.580;2023-10-31T12:51:21;11.90;99.90
17701;DHT22;8969;48.576;12.580;2023-10-31T12:53:49;11.80;99.90
17701;DHT22;8969;48.576;12.580;2023-10-31T12:56:38;11.80;99.90
17701;DHT22;8969;48.576;12.580;2023-10-31T12:59:08;11.80;99.90
17701;DHT22;8969;48.576;12.580;2023-10-31T13:01:42;11.80;99.90
17701;DHT22;8969;48.576;12.580;2023-10-31T13:04:10;11.70;99.90
17701;DHT22;8969;48.576;12.580;2023-10-31T13:06:40;11.70;99.90
17701;DHT22;8969;48.576;12.580;2023-10-31T13:09:11;11.70;99.90
17701;DHT22;8969;48.576;12.580;2023-10-31T13:11:40;11.70;99.90
17701;DHT22;8969;48.576;12.580;2023-10-31T13:14:09;11.70;99.90
17701;DHT22;8969;48.576;12.580;2023-10-31T13:16:38;11.70;99.90
17701;DHT22;8969;48.576;12.580;2023-10-31T13:19:13;11.80;99.90
17701;DHT22;8969;48.576;12.580;2023-10-31T13:21:41;11.80;99.90
17701;DHT22;8969;48.576;12.580;2023-10-31T13:24:11;11.90;99.90
17701;DHT22;8969;48.576;12.580;2023-10-31T13:26:40;11.90;99.90
17701;DHT22;8969;48.576;12.580;2023-10-31T13:29:11;11.90;99.90
17701;DHT22;8969;48.576;12.580;2023-10-31T13:31:40;11.80;99.90
17701;DHT22;8969;48.576;12.580;2023-10-31T13:34:10;11.80;99.90
17701;DHT22;8969;48.576;12.580;2023-10-31T13:36:38;11.80;99.90
17701;DHT22;8969;48.576;12.580;2023-10-31T13:39:06;11.70;99.90
17701;DHT22;8969;48.576;12.580;2023-10-31T13:41:36;11.60;99.90
17701;DHT22;8969;48.576;12.580;2023-10-31T13:44:04;11.60;99.90
17701;DHT22;8969;48.576;12.580;2023-10-31T13:46:32;11.60;99.90
17701;DHT22;8969;48.576;12.580;2023-10-31T13:49:03;11.60;99.90
17701;DHT22;8969;48.576;12.580;2023-10-31T13:51:31;11.50;99.90
17701;DHT22;8969;48.576;12.580;2023-10-31T13:54:00;11.50;99.90
17701;DHT22;8969;48.576;12.580;2023-10-31T13:56:29;11.50;99.90
17701;DHT22;8969;48.576;12.580;2023-10-31T13:59:02;11.40;99.90
17701;DHT22;8969;48.576;12.580;2023-10-31T14:01:30;11.40;99.90
17701;DHT22;8969;48.576;12.580;2023-10-31T14:03:59;11.50;99.90
17701;DHT22;8969;48.576;12.580;2023-10-31T14:06:54;11.50;99.90
17701;DHT22;8969;48.576;12.580;2023-10-31T14:09:22;11.50;99.90
17701;DHT22;8969;48.576;12.580;2023-10-31T14:11:49;11.60;99.90
17701;DHT22;8969;48.576;12.580;2023-10-31T14:14:17;11.60;99.90
17701;DHT22;8969;48.576;12.580;2023-10-31T14:16:47;11.60;99.90
17701;DHT22;8969;48.576;12.580;2023-10-31T14:19:15;11.60;99.90
17701;DHT22;8969;48.576;12.580;2023-10-31T14:21:45;11.60;99.90
17701;DHT22;8969;48.576;12.580;2023-10-31T14:24:16;11.60;99.90
17701;DHT22;8969;48.576;12.580;2023-10-31T14:26:44;11.60;99.90
17701;DHT22;8969;48.576;12.580;2023-10-31T14:29:12;11.60;99.90
17701;DHT22;8969;48.576;12.580;2023-10-31T14:31:41;11.60;99.90
17701;DHT22;8969;48.576;12.580;2023-10-31T14:34:09;11.60;99.90
17701;DHT22;8969;48.576;12.580;2023-10-31T14:36:38;11.60;99.90
17701;DHT22;8969;48.576;12.580;2023-10-31T14:39:08;11.60;99.90
17701;DHT22;8969;48.576;12.580;2023-10-31T14:41:40;11.60;99.90
17701;DHT22;8969;48.576;12.580;2023-10-31T14:44:08;11.50;99.90
17701;DHT22;8969;48.576;12.580;2023-10-31T14:46:36;11.40;99.90
17701;DHT22;8969;48.576;12.580;2023-10-31T14:49:05;11.40;99.90
17701;DHT22;8969;48.576;12.580;2023-10-31T14:51:33;11.40;99.90
17701;DHT22;8969;48.576;12.580;2023-10-31T14:54:01;11.30;99.90
17701;DHT22;8969;48.576;12.580;2023-10-31T14:56:33;11.30;99.90
17701;DHT22;8969;48.576;12.580;2023-10-31T14:59:04;11.20;99.90
17701;DHT22;8969;48.576;12.580;2023-10-31T15:01:32;11.20;99.90
17701;DHT22;8969;48.576;12.580;2023-10-31T15:04:00;11.10;99.90
17701;DHT22;8969;48.576;12.580;2023-10-31T15:06:30;11.10;99.90
17701;DHT22;8969;48.576;12.580;2023-10-31T15:08:58;11.10;99.90
17701;DHT22;8969;48.576;12.580;2023-10-31T15:11:29;11.10;99.90
17701;DHT22;8969;48.576;12.580;2023-10-31T15:13:58;11.10;99.90
17701;DHT22;8969;48.576;12.580;2023-10-31T15:16:28;11.10;99.90
17701;DHT22;8969;48.576;12.580;2023-10-31T15:18:58;11.10;99.90
17701;DHT22;8969;48.576;12.580;2023-10-31T15:21:27;11.10;99.90
17701;DHT22;8969;48.576;12.580;2023-10-31T15:23:55;11.00;99.90
17701;DHT22;8969;48.576;12.580;2023-10-31T15:26:24;11.00;99.90
17701;DHT22;8969;48.576;12.580;2023-10-31T15:28:53;11.00;99.90
17701;DHT22;8969;48.576;12.580;2023-10-31T15:31:21;11.00;99.90
17701;DHT22;8969;48.576;12.580;2023-10-31T15:33:51;11.00;99.90
17701;DHT22;8969;48.576;12.580;2023-10-31T15:36:20;10.90;99.90
17701;DHT22;8969;48.576;12.580;2023-10-31T15:38:49;10.90;99.90
17701;DHT22;8969;48.576;12.580;2023-10-31T15:41:18;10.90;99.90
17701;DHT22;8969;48.576;12.580;2023-10-31T15:43:48;10.90;99.90
17701;DHT22;8969;48.576;12.580;2023-10-31T15:46:16;10.80;99.90